createdAt,value
2024-01-11T00:01:34.342Z,101.90
2024-01-11T00:03:36.003Z,98.27
2024-01-11T00:05:37.883Z,87.10
2024-01-11T00:07:39.501Z,83.80
2024-01-11T00:09:42.866Z,75.40
2024-01-11T00:11:44.392Z,76.87
2024-01-11T00:13:45.869Z,86.57
2024-01-11T00:15:47.446Z,86.60
2024-01-11T00:17:49.155Z,81.33
2024-01-11T00:19:51.641Z,78.03
2024-01-11T00:21:53.083Z,85.73
2024-01-11T00:23:54.607Z,92.53
2024-01-11T00:25:56.117Z,96.07
2024-01-11T00:27:57.586Z,84.60
2024-01-11T00:29:59.044Z,87.90
2024-01-11T00:32:00.900Z,91.33
2024-01-11T00:34:02.491Z,99.07
2024-01-11T00:36:04.743Z,99.70
2024-01-11T00:38:06.282Z,95.60
2024-01-11T00:40:08.339Z,94.53
2024-01-11T00:42:09.786Z,94.20
2024-01-11T00:44:11.276Z,95.13
2024-01-11T00:46:12.913Z,96.57
2024-01-11T00:48:14.558Z,104.63
2024-01-11T00:50:16.127Z,109.73
2024-01-11T00:52:17.645Z,110.87
2024-01-11T00:54:19.137Z,101.23
2024-01-11T00:56:21.048Z,103.57
2024-01-11T00:58:22.553Z,106.33
2024-01-11T01:00:23.985Z,103.23
2024-01-11T01:02:25.481Z,104.90
2024-01-11T01:04:26.950Z,105.43
2024-01-11T01:06:28.438Z,103.37
2024-01-11T01:08:30.443Z,107.73
2024-01-11T01:10:31.946Z,97.63
2024-01-11T01:12:33.462Z,93.40
2024-01-11T01:14:37.498Z,107.47
2024-01-11T01:16:39.233Z,104.40
2024-01-11T01:18:40.881Z,113.20
2024-01-11T01:20:42.499Z,113.47
2024-01-11T01:22:43.982Z,90.07
2024-01-11T01:24:45.558Z,94.47
2024-01-11T01:26:47.070Z,95.40
2024-01-11T01:28:48.560Z,102.90
2024-01-11T01:30:50.094Z,106.27
2024-01-11T01:32:51.849Z,109.37
2024-01-11T01:34:53.395Z,112.23
2024-01-11T01:36:55.009Z,101.73
2024-01-11T01:38:56.905Z,101.33
2024-01-11T01:40:58.392Z,104.20
2024-01-11T01:43:03.057Z,105.33
2024-01-11T01:45:05.042Z,109.93
2024-01-11T01:47:07.040Z,109.30
2024-01-11T01:49:08.685Z,102.27
2024-01-11T01:51:10.209Z,100.17
2024-01-11T01:53:11.737Z,106.13
2024-01-11T01:55:15.907Z,105.37
2024-01-11T01:57:19.718Z,105.50
2024-01-11T01:59:22.432Z,100.93
2024-01-11T02:01:24.470Z,92.20
2024-01-11T02:03:29.292Z,99.63
2024-01-11T02:05:35.185Z,99.60
2024-01-11T02:07:36.764Z,96.37
2024-01-11T02:09:38.574Z,90.97
2024-01-11T02:11:41.903Z,88.63
2024-01-11T02:13:43.965Z,88.47
2024-01-11T02:15:46.488Z,89.40
2024-01-11T02:17:48.012Z,93.47
2024-01-11T02:19:49.503Z,95.17
2024-01-11T02:21:55.837Z,91.30
2024-01-11T02:24:07.869Z,78.03
2024-01-11T02:26:09.586Z,79.47
2024-01-11T02:28:12.314Z,78.23
2024-01-11T02:30:14.407Z,77.37
2024-01-11T02:32:16.055Z,77.47
2024-01-11T02:34:17.883Z,79.93
2024-01-11T02:36:21.468Z,76.73
2024-01-11T02:38:23.002Z,67.43
2024-01-11T02:40:24.837Z,71.60
2024-01-11T02:42:26.362Z,71.37
2024-01-11T02:44:27.891Z,60.20
2024-01-11T02:46:29.480Z,60.50
2024-01-11T02:48:31.480Z,64.00
2024-01-11T02:50:33.481Z,62.80
2024-01-11T02:52:35.446Z,64.93
2024-01-11T02:54:36.885Z,63.47
2024-01-11T02:56:38.635Z,64.97
2024-01-11T02:58:40.093Z,60.63
2024-01-11T03:00:41.584Z,63.57
2024-01-11T03:02:43.106Z,61.70
2024-01-11T03:04:44.591Z,57.37
2024-01-11T03:06:46.085Z,59.30
2024-01-11T03:08:47.576Z,53.67
2024-01-11T03:10:49.000Z,51.53
2024-01-11T03:12:50.597Z,48.93
2024-01-11T03:14:55.943Z,45.90
2024-01-11T03:16:57.428Z,47.73
2024-01-11T03:18:59.016Z,51.10
2024-01-11T03:21:00.540Z,45.63
2024-01-11T03:23:02.254Z,47.87
2024-01-11T03:25:04.031Z,46.43
2024-01-11T03:27:06.767Z,45.40
2024-01-11T03:29:08.294Z,43.20
2024-01-11T03:31:11.134Z,42.80
2024-01-11T03:33:12.971Z,42.90
2024-01-11T03:35:14.723Z,41.77
2024-01-11T03:37:17.625Z,39.87
2024-01-11T03:39:19.560Z,42.27
2024-01-11T03:41:21.062Z,41.30
2024-01-11T03:43:22.572Z,41.20
2024-01-11T03:45:24.010Z,40.43
2024-01-11T03:47:25.581Z,38.30
2024-01-11T03:49:27.156Z,37.87
2024-01-11T03:51:28.736Z,35.67
2024-01-11T03:53:30.215Z,33.03
2024-01-11T03:55:31.681Z,33.23
2024-01-11T03:57:33.161Z,33.50
2024-01-11T03:59:34.727Z,34.60
2024-01-11T04:01:41.409Z,29.83
2024-01-11T04:03:43.256Z,29.57
2024-01-11T04:05:44.935Z,29.83
2024-01-11T04:07:46.466Z,29.70
2024-01-11T04:09:47.930Z,28.53
2024-01-11T04:11:49.354Z,30.67
2024-01-11T04:13:50.830Z,29.20
2024-01-11T04:15:52.252Z,28.33
2024-01-11T04:17:53.939Z,27.97
2024-01-11T04:19:55.559Z,27.07
2024-01-11T04:21:57.210Z,28.03
2024-01-11T04:23:58.848Z,27.50
2024-01-11T04:26:00.427Z,27.80
2024-01-11T04:28:01.939Z,27.50
2024-01-11T04:30:03.705Z,27.20
2024-01-11T04:32:05.384Z,25.73
2024-01-11T04:34:06.934Z,26.90
2024-01-11T04:36:09.616Z,27.57
2024-01-11T04:38:11.107Z,26.20
2024-01-11T04:40:12.621Z,23.73
2024-01-11T04:42:14.114Z,25.00
2024-01-11T04:44:16.540Z,25.57
2024-01-11T04:46:26.189Z,22.43
2024-01-11T04:48:27.802Z,21.53
2024-01-11T04:50:29.308Z,21.00
2024-01-11T04:52:30.882Z,21.90
2024-01-11T04:54:32.372Z,20.70
2024-01-11T04:56:33.931Z,20.50
2024-01-11T04:58:41.165Z,21.90
2024-01-11T05:00:42.645Z,21.63
2024-01-11T05:02:44.199Z,20.93
2024-01-11T05:04:45.717Z,20.13
2024-01-11T05:06:47.189Z,20.50
2024-01-11T05:08:50.792Z,20.63
2024-01-11T05:10:52.419Z,20.43
2024-01-11T05:12:53.874Z,20.67
2024-01-11T05:14:55.405Z,19.43
2024-01-11T05:16:57.194Z,19.87
2024-01-11T05:18:59.349Z,19.93
2024-01-11T05:21:00.989Z,18.90
2024-01-11T05:23:02.486Z,19.40
2024-01-11T05:25:04.241Z,19.53
2024-01-11T05:27:05.837Z,19.63
2024-01-11T05:29:07.352Z,19.30
2024-01-11T05:31:14.247Z,19.03
2024-01-11T05:33:15.848Z,21.53
2024-01-11T05:35:17.492Z,22.00
2024-01-11T05:37:19.009Z,20.97
2024-01-11T05:39:20.525Z,20.23
2024-01-11T05:41:21.997Z,20.60
2024-01-11T05:43:24.577Z,21.03
2024-01-11T05:45:32.089Z,21.07
2024-01-11T05:47:42.577Z,18.67
2024-01-11T05:49:44.134Z,17.53
2024-01-11T05:51:45.632Z,16.83
2024-01-11T05:53:47.115Z,17.10
2024-01-11T05:55:49.095Z,17.23
2024-01-11T05:57:50.908Z,16.10
2024-01-11T05:59:52.356Z,16.47
2024-01-11T06:01:53.884Z,16.57
2024-01-11T06:03:56.184Z,16.30
2024-01-11T06:05:57.725Z,16.80
2024-01-11T06:07:59.325Z,16.23
2024-01-11T06:10:02.633Z,15.70
2024-01-11T06:12:06.387Z,15.30
2024-01-11T06:14:07.973Z,15.93
2024-01-11T06:16:12.177Z,15.30
2024-01-11T06:18:14.795Z,16.03
2024-01-11T06:20:16.460Z,15.07
2024-01-11T06:22:18.105Z,15.13
2024-01-11T06:24:20.231Z,15.90
2024-01-11T06:26:21.732Z,15.60
2024-01-11T06:28:23.363Z,15.57
2024-01-11T06:30:24.919Z,15.57
2024-01-11T06:32:26.505Z,16.13
2024-01-11T06:34:28.115Z,14.87
2024-01-11T06:36:31.259Z,15.73
2024-01-11T06:38:33.155Z,15.27
2024-01-11T06:40:34.591Z,16.63
2024-01-11T06:42:36.039Z,16.20
2024-01-11T06:44:37.541Z,16.57
2024-01-11T06:46:42.200Z,15.47
2024-01-11T06:48:43.728Z,15.50
2024-01-11T06:50:45.251Z,15.60
2024-01-11T06:52:46.760Z,14.70
2024-01-11T06:54:48.252Z,14.30
2024-01-11T06:56:49.988Z,14.93
2024-01-11T06:58:51.510Z,14.43
2024-01-11T07:00:53.016Z,13.97
2024-01-11T07:02:54.928Z,13.80
2024-01-11T07:04:56.473Z,14.53
2024-01-11T07:06:58.054Z,14.17
2024-01-11T07:09:00.107Z,15.43
2024-01-11T07:11:03.261Z,14.53
2024-01-11T07:13:05.293Z,14.00
2024-01-11T07:15:09.019Z,14.00
2024-01-11T07:17:10.543Z,14.03
2024-01-11T07:19:12.609Z,14.97
2024-01-11T07:21:36.435Z,15.13
2024-01-11T07:24:14.966Z,14.73
2024-01-11T07:26:59.245Z,14.13
2024-01-11T07:29:37.884Z,15.87
2024-01-11T07:31:52.365Z,15.03
2024-01-11T07:36:42.788Z,14.43
2024-01-11T07:38:50.336Z,15.40
2024-01-11T07:41:08.154Z,15.13
2024-01-11T07:43:15.349Z,16.30
2024-01-11T07:45:22.734Z,15.07
2024-01-11T07:47:41.817Z,15.50
2024-01-11T07:49:47.082Z,14.47
2024-01-11T07:51:48.764Z,16.10
2024-01-11T07:54:04.794Z,16.73
2024-01-11T07:56:41.881Z,15.77
2024-01-11T07:58:49.735Z,14.73
2024-01-11T08:01:04.106Z,16.10
2024-01-11T08:03:29.804Z,15.90
2024-01-11T08:05:35.661Z,13.80
2024-01-11T08:07:53.155Z,14.40
2024-01-11T08:10:31.686Z,15.97
2024-01-11T08:12:33.192Z,14.37
2024-01-11T08:14:34.676Z,13.37
2024-01-11T08:16:36.386Z,13.10
2024-01-11T08:18:37.983Z,14.30
2024-01-11T08:20:40.762Z,14.13
2024-01-11T08:22:44.311Z,13.77
2024-01-11T08:24:45.995Z,12.77
2024-01-11T08:26:47.952Z,12.37
2024-01-11T08:32:08.744Z,11.53
2024-01-11T08:34:20.502Z,11.07
2024-01-11T08:36:45.449Z,10.90
2024-01-11T08:41:47.193Z,11.37
2024-01-11T08:46:40.462Z,10.97
2024-01-11T08:48:51.884Z,11.00
2024-01-11T08:50:55.482Z,12.10
2024-01-11T08:52:59.430Z,11.50
2024-01-11T08:55:13.793Z,11.40
2024-01-11T08:57:41.464Z,11.10
2024-01-11T09:00:11.806Z,11.00
2024-01-11T09:02:21.737Z,11.13
2024-01-11T09:04:39.737Z,11.80
2024-01-11T09:06:47.083Z,11.27
2024-01-11T09:08:53.471Z,11.77
2024-01-11T09:11:00.692Z,12.20
2024-01-11T09:13:15.170Z,11.93
2024-01-11T09:15:30.777Z,13.27
2024-01-11T09:17:42.200Z,12.03
2024-01-11T09:19:43.739Z,13.03
2024-01-11T09:21:56.619Z,12.93
2024-01-11T09:24:00.916Z,13.87
2024-01-11T09:26:33.444Z,14.17
2024-01-11T09:29:16.490Z,14.13
2024-01-11T09:31:40.729Z,13.17
2024-01-11T09:34:06.366Z,13.73
2024-01-11T09:36:23.019Z,13.23
2024-01-11T09:38:28.169Z,13.17
2024-01-11T09:43:32.136Z,13.10
2024-01-11T09:45:39.012Z,12.77
2024-01-11T09:47:57.788Z,12.68
2024-01-11T09:50:32.888Z,14.85
2024-01-11T09:53:05.998Z,13.55
2024-01-11T09:55:23.182Z,12.82
2024-01-11T09:57:50.413Z,12.63
2024-01-11T10:00:19.453Z,12.45
2024-01-11T10:02:37.384Z,13.02
2024-01-11T10:04:44.418Z,14.05
2024-01-11T10:06:47.259Z,12.75
2024-01-11T10:08:48.828Z,13.37
2024-01-11T10:10:53.794Z,12.25
2024-01-11T10:13:01.896Z,11.88
2024-01-11T10:15:16.234Z,12.33
2024-01-11T10:17:27.380Z,13.70
2024-01-11T10:19:37.249Z,12.93
2024-01-11T10:21:59.202Z,11.85
2024-01-11T10:24:05.692Z,11.68
2024-01-11T10:26:17.491Z,11.55
2024-01-11T10:28:47.371Z,12.80
2024-01-11T10:31:09.555Z,12.10
2024-01-11T10:33:12.427Z,11.60
2024-01-11T10:35:20.846Z,10.45
2024-01-11T10:37:36.405Z,10.25
2024-01-11T10:39:39.541Z,11.18
2024-01-11T10:41:46.779Z,11.40
2024-01-11T10:43:49.957Z,11.88
2024-01-11T10:45:55.038Z,12.40
2024-01-11T10:48:02.777Z,11.65
2024-01-11T10:50:08.902Z,12.50
2024-01-11T10:52:13.554Z,10.35
2024-01-11T10:54:15.707Z,10.93
2024-01-11T10:56:17.956Z,11.23
2024-01-11T10:58:22.167Z,10.98
2024-01-11T11:00:24.031Z,10.15
2024-01-11T11:02:27.341Z,10.40
2024-01-11T11:04:30.151Z,11.05
2024-01-11T11:06:33.491Z,11.98
2024-01-11T11:08:35.569Z,12.13
2024-01-11T11:10:46.419Z,12.13
2024-01-11T11:12:49.897Z,12.80
2024-01-11T11:14:53.377Z,11.98
2024-01-11T11:16:55.257Z,12.00
2024-01-11T11:18:57.484Z,13.10
2024-01-11T11:20:59.214Z,12.02
2024-01-11T11:23:07.877Z,12.10
2024-01-11T11:25:13.033Z,12.15
2024-01-11T11:27:15.798Z,12.10
2024-01-11T11:29:17.832Z,11.93
2024-01-11T11:31:43.350Z,11.63
2024-01-11T11:33:44.906Z,12.10
2024-01-11T11:35:53.151Z,11.95
2024-01-11T11:37:58.334Z,12.63
2024-01-11T11:40:01.934Z,10.90
2024-01-11T11:42:05.534Z,11.48
2024-01-11T11:44:08.039Z,12.30
2024-01-11T11:46:09.966Z,11.63
2024-01-11T11:48:29.994Z,11.93
2024-01-11T11:50:32.385Z,11.48
2024-01-11T11:52:38.701Z,11.65
2024-01-11T11:54:40.490Z,11.63
2024-01-11T11:56:42.307Z,11.05
2024-01-11T11:58:45.131Z,11.02
2024-01-11T12:00:48.828Z,11.07
2024-01-11T12:02:53.582Z,11.05
2024-01-11T12:04:56.012Z,11.55
2024-01-11T12:06:57.705Z,10.75
2024-01-11T12:08:59.285Z,12.07
2024-01-11T12:11:01.064Z,12.02
2024-01-11T12:13:03.875Z,11.05
2024-01-11T12:15:07.542Z,11.88
2024-01-11T12:17:09.059Z,11.00
2024-01-11T12:19:11.003Z,11.93
2024-01-11T12:21:12.841Z,10.60
2024-01-11T12:23:17.302Z,11.23
2024-01-11T12:25:19.003Z,10.55
2024-01-11T12:27:21.509Z,10.77
2024-01-11T12:29:23.732Z,10.57
2024-01-11T12:31:25.406Z,10.35
2024-01-11T12:33:29.575Z,11.85
2024-01-11T12:35:34.335Z,10.38
2024-01-11T12:37:35.905Z,10.30
2024-01-11T12:39:39.048Z,10.38
2024-01-11T12:41:41.548Z,11.55
2024-01-11T12:43:43.505Z,11.65
2024-01-11T12:45:45.127Z,11.25
2024-01-11T12:47:47.342Z,9.63
2024-01-11T12:49:53.030Z,9.35
2024-01-11T12:51:55.460Z,10.15
2024-01-11T12:53:58.875Z,9.80
2024-01-11T12:56:14.559Z,9.98
2024-01-11T12:58:20.856Z,9.55
2024-01-11T13:00:23.110Z,11.18
2024-01-11T13:02:25.329Z,10.80
2024-01-11T13:04:27.130Z,10.30
2024-01-11T13:06:36.094Z,10.85
2024-01-11T13:08:41.374Z,10.18
2024-01-11T13:10:42.928Z,9.57
2024-01-11T13:12:48.379Z,10.23
2024-01-11T13:14:54.106Z,10.63
2024-01-11T13:16:55.880Z,11.70
2024-01-11T13:18:59.387Z,11.43
2024-01-11T13:21:00.924Z,11.63
2024-01-11T13:23:17.931Z,11.30
2024-01-11T13:25:19.559Z,10.60
2024-01-11T13:27:21.519Z,11.48
2024-01-11T13:29:23.157Z,11.25
2024-01-11T13:31:24.683Z,11.50
2024-01-11T13:33:26.607Z,11.38
2024-01-11T13:35:28.901Z,11.75
2024-01-11T13:37:30.530Z,11.80
2024-01-11T13:39:31.982Z,11.05
2024-01-11T13:41:33.715Z,11.60
2024-01-11T13:43:39.201Z,11.48
2024-01-11T13:45:40.791Z,11.13
2024-01-11T13:47:42.254Z,11.63
2024-01-11T13:49:44.182Z,11.23
2024-01-11T13:51:54.018Z,10.85
2024-01-11T13:54:01.970Z,10.60
2024-01-11T13:56:03.938Z,10.13
2024-01-11T13:58:05.888Z,10.63
2024-01-11T14:00:07.832Z,10.63
2024-01-11T14:02:13.234Z,10.77
2024-01-11T14:04:15.092Z,9.88
2024-01-11T14:06:17.103Z,11.00
2024-01-11T14:08:18.655Z,10.25
2024-01-11T14:10:20.127Z,10.98
2024-01-11T14:12:21.885Z,9.93
2024-01-11T14:14:23.519Z,10.13
2024-01-11T14:16:26.045Z,9.80
2024-01-11T14:18:29.065Z,9.38
2024-01-11T14:20:32.041Z,9.23
2024-01-11T14:22:33.926Z,9.55
2024-01-11T14:24:36.780Z,9.93
2024-01-11T14:26:39.283Z,9.15
2024-01-11T14:28:43.875Z,9.05
2024-01-11T14:30:46.301Z,9.65
2024-01-11T14:32:47.917Z,9.23
2024-01-11T14:34:50.284Z,9.25
2024-01-11T14:36:52.008Z,8.93
2024-01-11T14:38:53.475Z,8.68
2024-01-11T14:40:55.112Z,9.50
2024-01-11T14:42:56.867Z,8.52
2024-01-11T14:44:58.683Z,9.00
2024-01-11T14:47:00.174Z,9.35
2024-01-11T14:49:01.857Z,9.00
2024-01-11T14:51:03.928Z,9.23
2024-01-11T14:53:06.397Z,8.95
2024-01-11T14:55:10.734Z,8.30
2024-01-11T14:57:14.104Z,8.93
2024-01-11T14:59:15.866Z,8.25
2024-01-11T15:01:17.429Z,8.50
2024-01-11T15:03:20.397Z,7.93
2024-01-11T15:05:22.303Z,8.60
2024-01-11T15:07:24.004Z,8.65
2024-01-11T15:09:26.874Z,9.40
2024-01-11T15:11:29.275Z,9.30
2024-01-11T15:13:31.951Z,10.45
2024-01-11T15:15:33.486Z,11.43
2024-01-11T15:17:35.364Z,10.45
2024-01-11T15:19:36.964Z,10.38
2024-01-11T15:21:43.151Z,11.23
2024-01-11T15:23:49.521Z,11.10
2024-01-11T15:25:51.288Z,11.38
2024-01-11T15:27:52.767Z,12.18
2024-01-11T15:29:54.445Z,11.93
2024-01-11T15:31:56.125Z,12.60
2024-01-11T15:33:59.247Z,13.13
2024-01-11T15:36:00.941Z,12.35
2024-01-11T15:38:02.598Z,12.23
2024-01-11T15:40:05.166Z,12.63
2024-01-11T15:42:07.331Z,12.90
2024-01-11T15:44:09.077Z,13.13
2024-01-11T15:46:11.445Z,13.70
2024-01-11T15:48:13.293Z,13.82
2024-01-11T15:50:14.923Z,13.95
2024-01-11T15:52:17.040Z,15.30
2024-01-11T15:54:21.324Z,15.43
2024-01-11T15:56:23.262Z,15.65
2024-01-11T15:58:25.012Z,15.68
2024-01-11T16:00:26.691Z,15.60
2024-01-11T16:02:28.621Z,13.80
2024-01-11T16:04:30.089Z,14.95
2024-01-11T16:06:32.215Z,15.45
2024-01-11T16:08:34.027Z,14.30
2024-01-11T16:10:35.562Z,14.60
2024-01-11T16:12:37.038Z,13.18
2024-01-11T16:14:38.603Z,13.25
2024-01-11T16:16:40.774Z,12.90
2024-01-11T16:18:42.452Z,11.73
2024-01-11T16:20:43.988Z,11.82
2024-01-11T16:22:45.560Z,12.35
2024-01-11T16:24:50.212Z,12.05
2024-01-11T16:26:51.876Z,12.57
2024-01-11T16:28:53.371Z,12.10
2024-01-11T16:30:55.107Z,11.68
2024-01-11T16:32:57.380Z,11.60
2024-01-11T16:34:58.933Z,11.60
2024-01-11T16:37:07.507Z,11.82
2024-01-11T16:39:14.046Z,12.32
2024-01-11T16:41:16.101Z,12.77
2024-01-11T16:43:17.727Z,15.00
2024-01-11T16:45:19.497Z,14.57
2024-01-11T16:47:21.200Z,15.48
2024-01-11T16:49:23.484Z,14.75
2024-01-11T16:51:25.145Z,14.27
2024-01-11T16:53:26.640Z,13.50
2024-01-11T16:55:28.823Z,13.15
2024-01-11T16:57:30.372Z,12.65
2024-01-11T16:59:31.902Z,12.45
2024-01-11T17:01:49.648Z,12.38
2024-01-11T17:03:51.195Z,11.52
2024-01-11T17:05:52.783Z,12.20
2024-01-11T17:07:54.244Z,12.27
2024-01-11T17:09:55.685Z,12.38
2024-01-11T17:11:57.198Z,12.77
2024-01-11T17:13:58.934Z,13.35
2024-01-11T17:16:01.041Z,13.48
2024-01-11T17:18:02.853Z,12.68
2024-01-11T17:20:04.962Z,12.23
2024-01-11T17:22:06.680Z,14.18
2024-01-11T17:24:08.323Z,13.05
2024-01-11T17:26:10.132Z,12.80
2024-01-11T17:28:11.628Z,13.88
2024-01-11T17:30:13.379Z,12.55
2024-01-11T17:32:14.944Z,13.30
2024-01-11T17:34:16.619Z,13.27
2024-01-11T17:36:18.166Z,14.02
2024-01-11T17:38:19.775Z,13.90
2024-01-11T17:40:21.414Z,15.00
2024-01-11T17:42:24.167Z,14.68
2024-01-11T17:44:25.817Z,14.20
2024-01-11T17:46:29.336Z,14.80
2024-01-11T17:48:31.652Z,14.90
2024-01-11T17:50:34.488Z,14.70
2024-01-11T17:52:36.920Z,14.85
2024-01-11T17:54:40.357Z,15.40
2024-01-11T17:56:44.941Z,15.60
2024-01-11T17:58:47.134Z,13.57
2024-01-11T18:00:48.690Z,14.50
2024-01-11T18:02:50.202Z,14.63
2024-01-11T18:04:51.708Z,13.80
2024-01-11T18:06:53.484Z,14.32
2024-01-11T18:08:55.056Z,14.60
2024-01-11T18:10:56.848Z,14.23
2024-01-11T18:12:58.343Z,13.77
2024-01-11T18:15:00.178Z,13.70
2024-01-11T18:17:02.000Z,13.05
2024-01-11T18:19:04.097Z,13.27
2024-01-11T18:21:06.158Z,12.65
2024-01-11T18:23:09.376Z,13.18
2024-01-11T18:25:10.929Z,13.32
2024-01-11T18:27:12.576Z,12.88
2024-01-11T18:29:14.537Z,13.98
2024-01-11T18:31:16.988Z,13.10
2024-01-11T18:33:19.267Z,12.73
2024-01-11T18:35:20.830Z,13.15
2024-01-11T18:37:23.960Z,12.45
2024-01-11T18:39:25.631Z,12.95
2024-01-11T18:41:27.195Z,12.88
2024-01-11T18:43:29.761Z,14.00
2024-01-11T18:45:31.205Z,14.20
2024-01-11T18:47:33.019Z,12.98
2024-01-11T18:49:34.594Z,12.70
2024-01-11T18:51:40.765Z,12.48
2024-01-11T18:53:43.027Z,12.43
2024-01-11T18:55:52.968Z,13.07
2024-01-11T18:57:57.640Z,12.88
2024-01-11T19:00:00.230Z,13.48
2024-01-11T19:02:02.228Z,12.63
2024-01-11T19:04:05.150Z,12.38
2024-01-11T19:06:10.050Z,13.18
2024-01-11T19:08:29.330Z,12.82
2024-01-11T19:11:09.776Z,13.32
2024-01-11T19:13:11.280Z,13.73
2024-01-11T19:15:12.816Z,14.23
2024-01-11T19:17:15.231Z,15.57
2024-01-11T19:19:16.865Z,16.50
2024-01-11T19:21:18.453Z,17.20
2024-01-11T19:23:27.695Z,15.60
2024-01-11T19:25:32.447Z,14.82
2024-01-11T19:27:34.602Z,16.85
2024-01-11T19:29:36.100Z,18.52
2024-01-11T19:31:37.633Z,16.63
2024-01-11T19:33:39.446Z,15.48
2024-01-11T19:35:41.433Z,15.57
2024-01-11T19:37:44.042Z,14.95
2024-01-11T19:39:48.497Z,14.80
2024-01-11T19:41:50.064Z,14.90
2024-01-11T19:43:51.608Z,14.93
2024-01-11T19:45:53.076Z,14.73
2024-01-11T19:47:54.631Z,15.23
2024-01-11T19:49:56.575Z,15.32
2024-01-11T19:51:58.056Z,14.75
2024-01-11T19:53:59.601Z,15.55
2024-01-11T19:56:01.144Z,15.27
2024-01-11T19:58:03.153Z,15.25
2024-01-11T20:00:05.745Z,14.30
2024-01-11T20:02:12.329Z,15.20
2024-01-11T20:04:13.804Z,14.05
2024-01-11T20:06:15.432Z,16.13
2024-01-11T20:08:17.082Z,15.45
2024-01-11T20:10:18.707Z,15.68
2024-01-11T20:12:20.135Z,15.77
2024-01-11T20:17:30.034Z,15.18
2024-01-11T20:19:31.726Z,16.02
2024-01-11T20:21:33.809Z,16.13
2024-01-11T20:26:03.788Z,15.93
2024-01-11T20:28:05.856Z,15.88
2024-01-11T20:30:11.824Z,15.90
2024-01-11T20:32:13.966Z,15.70
2024-01-11T20:34:15.570Z,16.13
2024-01-11T20:36:17.347Z,14.35
2024-01-11T20:38:20.187Z,14.90
2024-01-11T20:40:21.785Z,15.15
2024-01-11T20:42:23.605Z,14.05
2024-01-11T20:44:25.366Z,15.45
2024-01-11T20:46:28.000Z,15.05
2024-01-11T20:48:32.308Z,14.80
2024-01-11T20:50:34.152Z,14.55
2024-01-11T20:52:35.658Z,15.00
2024-01-11T20:54:39.022Z,15.82
2024-01-11T20:56:45.105Z,15.82
2024-01-11T20:58:46.717Z,16.35
2024-01-11T21:00:48.574Z,17.40
2024-01-11T21:02:52.061Z,17.80
2024-01-11T21:04:53.868Z,17.55
2024-01-11T21:06:55.648Z,17.52
2024-01-11T21:09:13.078Z,18.45
2024-01-11T21:19:52.812Z,15.85
2024-01-11T21:25:21.203Z,15.27
2024-01-11T21:28:03.180Z,13.70
2024-01-11T21:33:42.036Z,14.05
2024-01-11T21:38:37.765Z,14.90
2024-01-11T21:40:43.176Z,17.13
2024-01-11T21:42:49.841Z,16.88
2024-01-11T21:44:56.005Z,16.88
2024-01-11T21:49:51.021Z,16.80
2024-01-11T21:51:54.769Z,17.42
2024-01-11T21:53:59.197Z,17.90
2024-01-11T21:56:02.889Z,17.88
2024-01-11T21:58:04.745Z,17.35
2024-01-11T22:03:12.509Z,15.88
2024-01-11T22:06:08.913Z,15.93
2024-01-11T22:08:12.426Z,15.75
2024-01-11T22:10:51.921Z,14.73
2024-01-11T22:13:04.074Z,15.73
2024-01-11T22:15:10.207Z,16.05
2024-01-11T22:17:17.573Z,15.40
2024-01-11T22:19:28.215Z,16.02
2024-01-11T22:24:17.590Z,14.55
2024-01-11T22:29:12.589Z,14.45
2024-01-11T22:34:14.166Z,13.93
2024-01-11T22:36:19.230Z,14.55
2024-01-11T22:38:25.615Z,16.48
2024-01-11T22:46:22.679Z,16.58
2024-01-11T22:48:24.340Z,16.10
2024-01-11T22:54:03.431Z,14.10
2024-01-11T22:56:42.379Z,13.87
2024-01-11T22:58:44.663Z,13.85
2024-01-11T23:01:00.888Z,14.02
2024-01-11T23:03:45.485Z,14.23
2024-01-11T23:11:49.495Z,15.00
2024-01-11T23:14:11.328Z,16.55
2024-01-11T23:16:32.768Z,16.88
2024-01-11T23:21:31.379Z,16.63
2024-01-11T23:26:23.293Z,13.90
2024-01-11T23:28:49.309Z,14.68
2024-01-11T23:30:56.930Z,13.40
2024-01-11T23:33:19.204Z,14.10
2024-01-11T23:35:20.813Z,13.40
2024-01-11T23:37:33.731Z,14.07
2024-01-11T23:45:43.524Z,14.88
2024-01-11T23:56:39.060Z,16.67
